This is the latest recevied weather packets stored in our database for station/object EA3BIN-13. If no packets are shown the sender has not sent any weather packets the latest 10 day(s).
| Time | Temp. | Humidity | Pressure | Rain* | Wind** | Luminosity | Snow |
|---|---|---|---|---|---|---|---|
| 1777755565 | 15.56° C | 10% | - | - | - | - | - |
| 1777753160 | 15.56° C | 10% | - | - | - | - | - |
| 1777750160 | 15° C | 10% | - | - | - | - | - |
| 1777749560 | 15° C | 10% | - | - | - | - | - |
| 1777745361 | 16.67° C | 79% | 1019.4 hPa | - | - | - | - |
| 1777742960 | 18.33° C | 67% | 1019.2 hPa | - | - | - | - |
| 1777741160 | 18.89° C | 63% | 1019.4 hPa | - | - | - | - |
| 1777739960 | 20.56° C | 51% | 1019.6 hPa | - | - | - | - |
| 1777739361 | 22.78° C | 45% | 1019 hPa | - | - | - | - |
| 1777737560 | 20.56° C | 73% | 1019.7 hPa | - | - | - | - |
| 1777736961 | 20° C | 78% | 1020.2 hPa | - | - | - | - |
| 1777735760 | 21.11° C | 72% | 1019.9 hPa | - | - | - | - |
| 1777735160 | 22.22° C | 65% | 1019.7 hPa | - | - | - | - |
| 1777730360 | 23.89° C | 53% | 1020.2 hPa | - | - | - | - |
| 1777729760 | 22.22° C | 57% | 1020.7 hPa | - | - | - | - |
| 1777727960 | 24.44° C | 48% | 1020.7 hPa | - | - | - | - |
| 1777726760 | 25° C | 47% | 1020.5 hPa | - | - | - | - |
| 1777721960 | 23.89° C | 62% | 1021.4 hPa | - | - | - | - |
| 1777720166 | 21.11° C | 73% | 1022.2 hPa | - | - | - | - |
| 1777719560 | 21.11° C | 73% | 1022.2 hPa | - | - | - | - |
| 1777712360 | 17.78° C | 91% | 1023.5 hPa | - | - | - | - |
| 1777710561 | 17.78° C | 94% | 1023.5 hPa | - | - | - | - |
| 1777709961 | 18.33° C | 92% | 1023.5 hPa | - | - | - | - |
| 1777707560 | 17.78° C | 94% | 1023.4 hPa | - | - | - | - |
| 1777701561 | 16.11° C | 10% | - | - | - | - | - |
* Rain since midnight (hover to see other rain measurements)
** Current wind speed in m/s (hover to see current wind gust speed)